createdAt,value
2022-12-25T00:04:34.516Z,2.90
2022-12-25T00:07:02.902Z,2.90
2022-12-25T00:09:30.999Z,2.80
2022-12-25T00:12:00.367Z,3.00
2022-12-25T00:14:28.351Z,3.00
2022-12-25T00:16:56.296Z,2.90
2022-12-25T00:24:21.077Z,2.70
2022-12-25T00:26:49.075Z,2.70
2022-12-25T00:29:18.412Z,2.70
2022-12-25T00:31:46.438Z,2.90
2022-12-25T00:34:14.452Z,2.90
2022-12-25T00:36:42.578Z,3.00
2022-12-25T00:39:11.220Z,2.90
2022-12-25T00:41:58.814Z,2.80
2022-12-25T00:44:28.234Z,2.80
2022-12-25T00:46:56.246Z,2.90
2022-12-25T00:49:24.726Z,2.90
2022-12-25T00:51:53.312Z,3.00
2022-12-25T00:54:21.789Z,3.00
2022-12-25T00:56:49.840Z,3.10
2022-12-25T00:59:17.798Z,3.20
2022-12-25T01:01:47.186Z,3.30
2022-12-25T01:04:15.323Z,3.40
2022-12-25T01:06:44.396Z,3.50
2022-12-25T01:09:29.964Z,3.60
2022-12-25T01:11:58.009Z,3.60
2022-12-25T01:16:55.887Z,3.70
2022-12-25T01:21:52.404Z,3.70
2022-12-25T01:24:20.430Z,3.70
2022-12-25T01:26:48.419Z,3.70
2022-12-25T01:29:16.530Z,3.70
2022-12-25T01:31:45.410Z,3.80
2022-12-25T01:34:14.783Z,3.80
2022-12-25T01:39:11.126Z,3.90
2022-12-25T01:41:39.116Z,3.90
2022-12-25T01:44:28.138Z,3.90
2022-12-25T01:46:57.428Z,4.00
2022-12-25T01:49:26.668Z,3.90
2022-12-25T01:51:58.006Z,4.00
2022-12-25T01:56:58.908Z,4.20
2022-12-25T01:59:27.685Z,4.20
2022-12-25T02:01:57.444Z,4.40
2022-12-25T02:07:07.516Z,4.40
2022-12-25T02:09:35.722Z,4.50
2022-12-25T02:12:04.202Z,4.50
2022-12-25T02:14:35.589Z,4.60
2022-12-25T02:17:09.091Z,4.60
2022-12-25T02:19:51.440Z,4.60
2022-12-25T02:22:29.180Z,4.60
2022-12-25T02:25:05.045Z,4.70
2022-12-25T02:28:06.606Z,4.70
2022-12-25T02:30:38.705Z,4.70
2022-12-25T02:33:28.381Z,4.80
2022-12-25T02:35:57.338Z,4.90
2022-12-25T02:38:28.210Z,5.00
2022-12-25T02:40:58.840Z,5.00
2022-12-25T02:43:48.587Z,5.20
2022-12-25T02:46:38.430Z,5.20
2022-12-25T02:49:27.725Z,5.30
2022-12-25T02:52:15.935Z,5.30
2022-12-25T02:57:55.364Z,5.50
2022-12-25T03:00:42.345Z,5.50
2022-12-25T03:03:30.995Z,5.50
2022-12-25T03:06:20.485Z,5.50
2022-12-25T03:08:53.752Z,5.40
2022-12-25T03:11:33.146Z,5.40
2022-12-25T03:14:18.078Z,5.50
2022-12-25T03:16:51.743Z,5.50
2022-12-25T03:19:38.365Z,5.60
2022-12-25T03:22:26.575Z,5.70
2022-12-25T03:25:13.466Z,5.60
2022-12-25T03:27:44.988Z,5.60
2022-12-25T03:30:31.356Z,5.60
2022-12-25T03:33:23.337Z,5.70
2022-12-25T03:36:03.239Z,5.70
2022-12-25T03:41:55.614Z,5.70
2022-12-25T03:44:44.455Z,5.70
2022-12-25T03:47:46.623Z,5.80
2022-12-25T03:50:37.068Z,5.80
2022-12-25T03:53:26.067Z,5.80
2022-12-25T03:56:12.089Z,5.90
2022-12-25T03:59:07.865Z,5.90
2022-12-25T04:04:39.085Z,7.90
2022-12-25T04:07:25.772Z,6.10
2022-12-25T04:10:11.245Z,6.10
2022-12-25T04:15:42.319Z,6.20
2022-12-25T04:18:28.042Z,6.30
2022-12-25T04:21:19.108Z,6.20
2022-12-25T04:24:05.767Z,6.30
2022-12-25T04:29:37.101Z,6.40
2022-12-25T04:32:22.460Z,6.40
2022-12-25T04:35:08.320Z,6.50
2022-12-25T04:37:36.329Z,6.50
2022-12-25T04:40:07.206Z,6.50
2022-12-25T04:42:35.204Z,6.60
2022-12-25T04:45:03.204Z,6.50
2022-12-25T04:47:31.263Z,6.60
2022-12-25T04:49:59.283Z,6.60
2022-12-25T04:52:27.337Z,6.80
2022-12-25T04:54:55.475Z,6.60
2022-12-25T04:57:24.844Z,6.70
2022-12-25T04:59:52.871Z,6.70
2022-12-25T05:02:20.991Z,6.70
2022-12-25T05:04:49.105Z,6.70
2022-12-25T05:07:17.191Z,6.70
2022-12-25T05:09:45.238Z,6.70
2022-12-25T05:17:11.524Z,6.90
2022-12-25T05:19:39.518Z,7.00
2022-12-25T05:22:07.487Z,6.80
2022-12-25T05:24:35.485Z,6.90
2022-12-25T05:29:31.819Z,7.00
2022-12-25T05:32:01.178Z,6.90
2022-12-25T05:34:29.233Z,7.00
2022-12-25T05:36:57.479Z,7.00
2022-12-25T05:39:25.462Z,7.10
2022-12-25T05:41:53.476Z,7.10
2022-12-25T05:44:21.654Z,7.10
2022-12-25T05:46:49.823Z,7.10
2022-12-25T05:49:19.217Z,7.10
2022-12-25T05:51:47.448Z,7.10
2022-12-25T05:54:16.803Z,7.10
2022-12-25T05:56:44.797Z,7.10
2022-12-25T05:59:12.992Z,7.10
2022-12-25T06:01:41.262Z,7.10
2022-12-25T06:04:12.751Z,7.00
2022-12-25T06:06:42.600Z,7.10
2022-12-25T06:09:12.597Z,7.10
2022-12-25T06:11:41.093Z,7.20
2022-12-25T06:14:12.320Z,7.20
2022-12-25T06:16:40.383Z,7.20
2022-12-25T06:19:08.498Z,7.20
2022-12-25T06:21:36.531Z,7.20
2022-12-25T06:24:06.521Z,7.20
2022-12-25T06:31:31.904Z,7.20
2022-12-25T06:33:59.991Z,7.20
2022-12-25T06:36:29.334Z,7.20
2022-12-25T06:43:58.129Z,7.30
2022-12-25T06:48:56.099Z,7.20
2022-12-25T06:51:25.323Z,7.20
2022-12-25T06:56:24.318Z,7.20
2022-12-25T06:58:55.171Z,7.30
2022-12-25T07:03:56.499Z,7.30
2022-12-25T07:06:24.935Z,7.30
2022-12-25T07:11:21.962Z,7.40
2022-12-25T07:13:50.054Z,7.30
2022-12-25T07:16:20.275Z,7.40
2022-12-25T07:21:18.755Z,7.40
2022-12-25T07:23:48.083Z,7.40
2022-12-25T07:26:17.341Z,7.30
2022-12-25T07:28:45.546Z,7.50
2022-12-25T07:31:15.574Z,7.40
2022-12-25T07:38:42.741Z,7.40
2022-12-25T07:41:11.702Z,7.30
2022-12-25T07:43:39.947Z,7.30
2022-12-25T07:46:08.620Z,7.40
2022-12-25T07:48:37.205Z,7.40
2022-12-25T07:51:08.578Z,7.40
2022-12-25T07:58:35.607Z,7.60
2022-12-25T08:01:06.287Z,7.60
2022-12-25T08:06:04.748Z,7.60
2022-12-25T08:08:34.705Z,7.70
2022-12-25T08:18:30.383Z,8.10
2022-12-25T08:21:02.687Z,8.20
2022-12-25T08:26:05.047Z,8.20
2022-12-25T08:28:34.486Z,8.20
2022-12-25T08:31:07.587Z,8.20
2022-12-25T08:33:36.623Z,8.20
2022-12-25T08:36:06.165Z,8.30
2022-12-25T08:41:04.600Z,8.40
2022-12-25T08:50:57.891Z,8.60
2022-12-25T08:55:58.763Z,8.60
2022-12-25T09:00:57.459Z,8.60
2022-12-25T09:05:55.010Z,8.70
2022-12-25T09:08:23.291Z,8.70
2022-12-25T09:18:17.735Z,8.60
2022-12-25T09:23:14.565Z,8.60
2022-12-25T09:25:42.713Z,8.60
2022-12-25T09:28:10.698Z,8.60
2022-12-25T09:30:38.800Z,8.50
2022-12-25T09:33:08.377Z,8.50
2022-12-25T09:35:36.506Z,8.50
2022-12-25T09:38:04.586Z,8.50
2022-12-25T09:40:33.046Z,8.50
2022-12-25T09:48:01.940Z,8.50
2022-12-25T09:53:10.778Z,8.50
2022-12-25T09:55:42.197Z,8.60
2022-12-25T09:58:12.440Z,8.60
2022-12-25T10:03:18.096Z,8.70
2022-12-25T10:06:04.322Z,8.70
2022-12-25T10:08:43.907Z,8.80
2022-12-25T10:11:21.092Z,8.80
2022-12-25T10:16:35.490Z,8.70
2022-12-25T10:24:21.525Z,8.80
2022-12-25T10:26:51.418Z,8.80
2022-12-25T10:29:20.435Z,8.90
2022-12-25T10:31:51.292Z,8.80
2022-12-25T10:36:50.095Z,8.90
2022-12-25T10:39:19.107Z,8.90
2022-12-25T10:42:03.200Z,8.90
2022-12-25T10:44:32.315Z,8.90
2022-12-25T10:54:32.222Z,9.00
2022-12-25T10:57:02.172Z,8.90
2022-12-25T10:59:31.674Z,8.90
2022-12-25T11:02:11.346Z,8.80
2022-12-25T11:04:39.508Z,8.90
2022-12-25T11:07:15.000Z,8.80
2022-12-25T11:09:50.608Z,9.10
2022-12-25T11:12:20.048Z,8.80
2022-12-25T11:19:55.604Z,8.90
2022-12-25T11:27:25.392Z,9.00
2022-12-25T11:32:28.970Z,9.00
2022-12-25T11:42:32.295Z,10.90
2022-12-25T11:45:05.390Z,9.10
2022-12-25T11:47:38.093Z,9.10
2022-12-25T11:50:14.883Z,9.20
2022-12-25T11:52:47.875Z,9.10
2022-12-25T11:55:20.151Z,9.20
2022-12-25T11:57:52.596Z,9.20
2022-12-25T12:10:30.434Z,9.10
2022-12-25T12:13:07.327Z,9.10
2022-12-25T12:15:42.373Z,9.10
2022-12-25T12:20:46.712Z,9.10
2022-12-25T12:23:17.915Z,9.10
2022-12-25T12:28:21.642Z,9.10
2022-12-25T12:38:27.362Z,9.10
2022-12-25T12:40:57.089Z,9.00
2022-12-25T12:43:31.140Z,9.00
2022-12-25T12:46:03.364Z,9.00
2022-12-25T12:51:08.004Z,9.10
2022-12-25T12:53:38.227Z,9.10
2022-12-25T12:58:45.092Z,9.10
2022-12-25T13:09:07.537Z,9.10
2022-12-25T13:11:39.925Z,9.10
2022-12-25T13:16:44.966Z,9.10
2022-12-25T13:19:15.611Z,9.20
2022-12-25T13:26:51.876Z,9.20
2022-12-25T13:36:51.500Z,9.20
2022-12-25T13:39:19.912Z,9.10
2022-12-25T13:42:06.614Z,9.10
2022-12-25T13:47:16.594Z,9.10
2022-12-25T13:57:24.948Z,9.20
2022-12-25T14:09:59.638Z,9.20
2022-12-25T14:12:31.254Z,9.20
2022-12-25T14:15:00.176Z,9.20
2022-12-25T14:20:04.023Z,9.20
2022-12-25T14:25:15.557Z,9.10
2022-12-25T14:27:49.753Z,9.10
2022-12-25T14:30:18.683Z,9.10
2022-12-25T14:35:23.316Z,9.10
2022-12-25T14:37:54.786Z,9.10
2022-12-25T14:40:26.456Z,9.10
2022-12-25T14:42:59.890Z,9.10
2022-12-25T14:45:31.140Z,9.20
2022-12-25T14:50:31.896Z,9.10
2022-12-25T14:53:00.289Z,9.20
2022-12-25T14:55:29.531Z,9.10
2022-12-25T15:00:31.702Z,9.10
2022-12-25T15:03:00.897Z,9.20
2022-12-25T15:05:34.643Z,9.20
2022-12-25T15:08:24.664Z,9.20
2022-12-25T15:11:02.269Z,9.20
2022-12-25T15:13:32.663Z,9.20
2022-12-25T15:18:35.593Z,9.20
2022-12-25T15:28:28.763Z,9.10
2022-12-25T15:30:58.165Z,9.10
2022-12-25T15:35:54.645Z,9.20
2022-12-25T15:38:22.574Z,9.20
2022-12-25T15:46:09.984Z,9.20
2022-12-25T15:48:38.019Z,9.20
2022-12-25T15:51:06.374Z,9.20
2022-12-25T15:53:34.329Z,9.20
2022-12-25T15:56:02.397Z,9.20
2022-12-25T16:00:58.710Z,9.20
2022-12-25T16:08:25.004Z,9.20
2022-12-25T16:10:53.887Z,9.30
2022-12-25T16:13:23.057Z,9.30
2022-12-25T16:15:51.204Z,9.40
2022-12-25T16:18:19.364Z,9.30
2022-12-25T16:20:48.746Z,9.30
2022-12-25T16:25:45.242Z,9.30
2022-12-25T16:45:38.868Z,9.30
2022-12-25T16:48:08.176Z,9.30
2022-12-25T16:58:07.274Z,9.40
2022-12-25T17:00:35.385Z,9.40
2022-12-25T17:03:03.614Z,9.40
2022-12-25T17:05:33.604Z,9.40
2022-12-25T17:15:28.763Z,9.50
2022-12-25T17:17:56.669Z,9.50
2022-12-25T17:20:24.746Z,9.40
2022-12-25T17:22:52.782Z,9.50
2022-12-25T17:27:50.501Z,9.40
2022-12-25T17:30:19.952Z,9.50
2022-12-25T17:32:48.100Z,9.40
2022-12-25T17:35:17.762Z,9.50
2022-12-25T17:37:45.786Z,11.60
2022-12-25T17:40:14.643Z,9.50
2022-12-25T17:42:42.606Z,9.50
2022-12-25T17:45:11.926Z,9.40
2022-12-25T17:47:41.276Z,9.50
2022-12-25T17:50:09.749Z,9.50
2022-12-25T17:52:37.692Z,9.50
2022-12-25T17:55:06.392Z,9.50
2022-12-25T18:02:32.982Z,9.50
2022-12-25T18:07:30.802Z,9.50
2022-12-25T18:09:58.780Z,9.50
2022-12-25T18:14:55.580Z,9.50
2022-12-25T18:17:23.550Z,9.50
2022-12-25T18:19:52.102Z,9.50
2022-12-25T18:24:50.236Z,9.50
2022-12-25T18:29:46.758Z,9.60
2022-12-25T18:32:14.939Z,9.60
2022-12-25T18:34:42.969Z,9.50
2022-12-25T18:37:11.031Z,9.50
2022-12-25T18:42:26.268Z,9.50
2022-12-25T18:44:54.467Z,9.50
2022-12-25T18:49:50.888Z,9.50
2022-12-25T18:52:47.755Z,9.50
2022-12-25T18:57:39.744Z,9.40
2022-12-25T19:00:08.999Z,9.50
2022-12-25T19:05:06.698Z,9.40
2022-12-25T19:07:34.694Z,9.50
2022-12-25T19:10:02.663Z,9.40
2022-12-25T19:17:31.941Z,9.40
2022-12-25T19:20:00.419Z,9.40
2022-12-25T19:22:29.280Z,9.40
2022-12-25T19:24:57.233Z,9.30
2022-12-25T19:29:55.639Z,9.40
2022-12-25T19:32:23.673Z,9.50
2022-12-25T19:34:51.706Z,9.60
2022-12-25T19:37:19.789Z,9.60
2022-12-25T19:42:18.822Z,9.70
2022-12-25T19:44:47.132Z,9.70
2022-12-25T19:47:16.657Z,9.70
2022-12-25T19:52:16.387Z,9.70
2022-12-25T19:54:44.383Z,9.70
2022-12-25T19:57:12.343Z,9.70
2022-12-25T19:59:40.445Z,9.80
2022-12-25T20:02:10.348Z,9.80
2022-12-25T20:04:39.778Z,9.90
2022-12-25T20:09:36.262Z,9.90
2022-12-25T20:12:04.831Z,10.00
2022-12-25T20:14:32.791Z,9.90
2022-12-25T20:17:00.958Z,10.00
2022-12-25T20:19:28.953Z,10.00
2022-12-25T20:21:58.734Z,10.10
2022-12-25T20:31:55.952Z,10.10
2022-12-25T20:34:24.116Z,10.10
2022-12-25T20:36:52.172Z,10.20
2022-12-25T20:39:21.654Z,10.10
2022-12-25T20:41:49.842Z,10.20
2022-12-25T20:44:17.905Z,10.20
2022-12-25T20:46:46.043Z,10.20
2022-12-25T20:49:14.060Z,10.20
2022-12-25T20:51:42.095Z,10.20
2022-12-25T20:54:12.666Z,10.20
2022-12-25T20:56:42.140Z,10.30
2022-12-25T20:59:11.767Z,10.20
2022-12-25T21:01:42.067Z,10.30
2022-12-25T21:04:15.883Z,10.50
2022-12-25T21:09:12.777Z,10.20
2022-12-25T21:11:42.168Z,10.20
2022-12-25T21:14:10.300Z,10.20
2022-12-25T21:16:38.409Z,10.20
2022-12-25T21:19:06.385Z,10.20
2022-12-25T21:36:49.902Z,10.30
2022-12-25T21:39:17.885Z,10.30
2022-12-25T21:41:45.893Z,8.60
2022-12-25T21:44:15.230Z,10.20
2022-12-25T21:46:43.255Z,10.40
2022-12-25T21:49:11.327Z,10.40
2022-12-25T21:52:03.049Z,10.40
2022-12-25T21:54:31.035Z,10.40
2022-12-25T21:56:59.008Z,10.50
2022-12-25T22:04:25.211Z,10.40
2022-12-25T22:07:11.325Z,10.40
2022-12-25T22:09:39.310Z,10.40
2022-12-25T22:12:31.997Z,10.50
2022-12-25T22:15:06.464Z,10.40
2022-12-25T22:17:54.181Z,10.50
2022-12-25T22:20:23.894Z,10.50
2022-12-25T22:25:21.055Z,10.50
2022-12-25T22:30:20.717Z,10.50
2022-12-25T22:32:49.201Z,10.50
2022-12-25T22:45:12.805Z,10.50
2022-12-25T22:47:42.283Z,10.50
2022-12-25T22:50:12.443Z,11.10
2022-12-25T22:52:41.500Z,10.50
2022-12-25T22:55:10.483Z,10.50
2022-12-25T22:57:38.533Z,10.50
2022-12-25T23:00:09.039Z,10.60
2022-12-25T23:05:08.125Z,10.50
2022-12-25T23:07:36.223Z,10.50
2022-12-25T23:12:50.863Z,10.60
2022-12-25T23:15:19.097Z,10.50
2022-12-25T23:18:04.578Z,10.60
2022-12-25T23:20:51.819Z,10.50
2022-12-25T23:23:37.340Z,10.50
2022-12-25T23:26:08.966Z,10.60
2022-12-25T23:28:55.187Z,10.60
2022-12-25T23:31:26.514Z,10.50
2022-12-25T23:33:54.796Z,10.50
2022-12-25T23:36:24.272Z,10.50
2022-12-25T23:38:52.353Z,10.50
2022-12-25T23:41:20.453Z,10.50
2022-12-25T23:43:48.453Z,10.50
2022-12-25T23:46:16.472Z,10.50
2022-12-25T23:48:44.504Z,10.50
2022-12-25T23:51:12.541Z,10.50
2022-12-25T23:53:41.948Z,10.50
2022-12-25T23:56:10.496Z,10.40
2022-12-25T23:58:38.687Z,10.50
